20:42
Airports
Links
Donate
Help keep this website running!
PayPal
Bitcoin
METAR
RJTT 222040Z 02014KT 8000 -SHRA FEW006 BKN008 BKN020 19/18 Q1013 RMK 1ST006 5ST008 6CU020 A2994
Current Weather Conditions at RJTT
IFR 20:40:00 22-09-17
Altimeter:29.91 hg
Temp:19.0°c 66°f
Dew point:18.0°c 64°f
Wind:14 knots, 16.1 mph, 7 m/s, from 20°
Visibility:4.97 statute miles
2000(BKN) Broken
800(BKN) Broken
600(FEW) A few
Past METAR reports
IFR 20:30:00 22-09-17
Altimeter:29.91 hg
Temp:19.0°c 66°f
Dew point:18.0°c 64°f
Wind:15 knots, 17.3 mph, 8 m/s, from 20°
Visibility:3.73 statute miles
2000(BKN) Broken
800(BKN) Broken
600(FEW) A few
RJTT 222030Z 02015KT 6000 SHRA FEW006 BKN008 BKN020 19/18 Q1013 TEMPO 4000 -SHRA BR
IFR 20:20:00 22-09-17
Altimeter:29.94 hg
Temp:19.0°c 66°f
Dew point:18.0°c 64°f
Wind:16 knots, 18.4 mph, 8 m/s, from 30°
Visibility:2.49 statute miles
2000(BKN) Broken
900(SCT) Scattered
600(FEW) A few
RJTT 222020Z 03016KT 4000 SHRA BR FEW006 SCT009 BKN020 19/18 Q1014 RMK 1ST006 3ST009 5CU020 A2994
MVFR 20:00:00 22-09-17
Altimeter:29.94 hg
Temp:19.0°c 66°f
Dew point:18.0°c 64°f
Wind:17 knots, 19.6 mph, 9 m/s, from 50°
Visibility:3.73 statute miles
2000(BKN) Broken
900(SCT) Scattered
600(FEW) A few
RJTT 222000Z 05017KT 6000 SHRA FEW006 SCT009 BKN020 19/18 Q1014 TEMPO 3000 SHRA BR FEW006 BKN008 RMK 1ST006 4ST009 5CU020 A2995
MVFR 19:44:00 22-09-17
Altimeter:29.94 hg
Temp:19.0°c 66°f
Dew point:18.0°c 64°f
Wind:19 knots, 21.9 mph, 10 m/s, from 50°
Visibility:3.11 statute miles
4000(BKN) Broken
1500(SCT) Scattered
800(FEW) A few
RJTT 221944Z 05019KT 5000 SHRA BR FEW008 SCT015 BKN040 19/18 Q1014 RMK 1ST008 3CU015 5CU040 A2994
MVFR 19:30:00 22-09-17
Altimeter:29.94 hg
Temp:20.0°c 68°f
Dew point:19.0°c 66°f
Wind:20 knots, 23 mph, 10 m/s, from 50°
Visibility:3.73 statute miles
3500(BKN) Broken
1000(SCT) Scattered
500(FEW) A few
RJTT 221930Z 05020KT 6000 -SHRA FEW005 SCT010 BKN035 20/19 Q1014 TEMPO 3000 SHRA BR FEW006 BKN008
MVFR 19:21:00 22-09-17
Altimeter:29.94 hg
Temp:20.0°c 68°f
Dew point:19.0°c 66°f
Wind:17 knots, 19.6 mph, 9 m/s, from 40°
Visibility:3.73 statute miles
1500(BKN) Broken
1000(SCT) Scattered
400(FEW) A few
RJTT 221921Z 04017KT 6000 -SHRA FEW004 SCT010 BKN015 20/19 Q1014 RMK 1ST004 3CU010 5CU015 A2996
TAF
TAF RJTT 221707Z 2218/2400 02018KT 8000 -SHRA FEW008 BKN012 TEMPO 2218/2221 3000 SHRA BR FEW005 BKN008 TEMPO 2221/2300 4000 -SHRA BR FEW005 BKN008 BECMG 2312/2315 05006KT
Forecast at RJTT
TEMPO 18:00 22-09-17 to 21:00 22-09-17
SHRA BR
Visibility:1.86 statute miles
500FEW A few
800BKN Broken
18:00 22-09-17 to 12:00 23-09-17
-SHRA
Wind:18 Knots from 20°
Visibility:4.97 statute miles
800FEW A few
1200BKN Broken
TEMPO 21:00 22-09-17 to 00:00 23-09-17
-SHRA BR
Visibility:2.49 statute miles
500FEW A few
800BKN Broken
BECMG 12:00 23-09-17 to 00:00 24-09-17
-SHRA
Wind:6 Knots from 50°
Visibility:4.97 statute miles
800FEW A few
1200BKN Broken